createdAt,value
2022-12-05T00:02:03.891Z,100063.06
2022-12-05T00:04:31.907Z,100051.06
2022-12-05T00:06:59.847Z,100067.00
2022-12-05T00:09:27.863Z,100066.94
2022-12-05T00:11:57.644Z,100067.06
2022-12-05T00:14:25.838Z,100060.38
2022-12-05T00:16:55.203Z,100053.69
2022-12-05T00:19:23.738Z,100044.50
2022-12-05T00:21:51.672Z,100040.44
2022-12-05T00:24:19.934Z,100030.47
2022-12-05T00:26:48.564Z,100024.63
2022-12-05T00:29:16.563Z,100035.47
2022-12-05T00:31:44.510Z,100022.81
2022-12-05T00:34:14.197Z,100023.78
2022-12-05T00:36:42.360Z,100024.63
2022-12-05T00:39:12.669Z,100028.78
2022-12-05T00:41:40.999Z,100024.50
2022-12-05T00:44:09.342Z,100032.78
2022-12-05T00:46:37.865Z,100022.69
2022-12-05T00:49:07.714Z,100029.28
2022-12-05T00:51:39.761Z,100041.09
2022-12-05T00:54:09.937Z,100033.63
2022-12-05T00:56:38.533Z,100028.63
2022-12-05T00:59:07.829Z,100032.06
2022-12-05T01:01:38.225Z,100018.59
2022-12-05T01:04:08.008Z,100026.94
2022-12-05T01:06:37.818Z,100015.03
2022-12-05T01:09:07.858Z,100040.31
2022-12-05T01:11:40.913Z,100025.94
2022-12-05T01:14:10.022Z,100040.13
2022-12-05T01:16:40.099Z,100029.22
2022-12-05T01:19:11.811Z,100043.31
2022-12-05T01:21:41.610Z,100050.88
2022-12-05T01:24:10.379Z,100044.06
2022-12-05T01:26:38.660Z,100044.19
2022-12-05T01:29:06.647Z,100051.00
2022-12-05T01:31:36.867Z,100045.00
2022-12-05T01:34:07.444Z,100046.72
2022-12-05T01:36:35.766Z,100047.50
2022-12-05T01:39:05.231Z,100020.97
2022-12-05T01:41:36.382Z,100034.19
2022-12-05T01:44:06.877Z,100038.25
2022-12-05T01:46:36.918Z,100034.97
2022-12-05T01:49:09.120Z,100035.06
2022-12-05T01:51:39.752Z,100025.88
2022-12-05T01:54:11.502Z,100032.53
2022-12-05T01:56:43.467Z,100030.88
2022-12-05T01:59:12.670Z,100028.38
2022-12-05T02:01:41.871Z,99991.28
2022-12-05T02:04:10.959Z,100008.44
2022-12-05T02:06:39.972Z,99998.47
2022-12-05T02:09:09.843Z,99995.34
2022-12-05T02:11:47.323Z,100000.56
2022-12-05T02:14:26.793Z,99993.16
2022-12-05T02:17:12.794Z,99980.78
2022-12-05T02:20:19.788Z,99993.22
2022-12-05T02:23:21.189Z,99993.16
2022-12-05T02:26:14.363Z,99979.84
2022-12-05T02:29:09.866Z,99989.63
2022-12-05T02:31:47.644Z,99984.56
2022-12-05T02:34:22.444Z,99988.84
2022-12-05T02:36:58.723Z,99995.47
2022-12-05T02:39:36.882Z,99997.03
2022-12-05T02:42:11.841Z,99997.09
2022-12-05T02:44:46.744Z,99994.63
2022-12-05T02:47:21.046Z,99992.84
2022-12-05T02:49:51.126Z,99996.25
2022-12-05T02:52:19.988Z,99992.06
2022-12-05T02:54:50.501Z,99996.91
2022-12-05T02:57:20.115Z,99990.22
2022-12-05T02:59:48.214Z,99993.50
2022-12-05T03:02:27.017Z,99994.34
2022-12-05T03:04:59.669Z,99987.78
2022-12-05T03:07:30.649Z,99992.69
2022-12-05T03:10:03.835Z,99987.72
2022-12-05T03:12:38.617Z,99980.94
2022-12-05T03:15:11.831Z,99999.22
2022-12-05T03:17:45.628Z,99993.25
2022-12-05T03:20:19.178Z,99992.72
2022-12-05T03:22:53.352Z,99999.41
2022-12-05T03:25:24.547Z,99999.16
2022-12-05T03:27:58.633Z,100013.00
2022-12-05T03:30:26.806Z,100013.56
2022-12-05T03:33:04.131Z,100018.31
2022-12-05T03:35:38.427Z,100010.56
2022-12-05T03:38:12.201Z,100000.47
2022-12-05T03:40:45.217Z,100003.81
2022-12-05T03:43:20.160Z,100009.22
2022-12-05T03:45:54.206Z,100005.06
2022-12-05T03:48:31.484Z,100013.53
2022-12-05T03:51:01.459Z,100019.75
2022-12-05T03:53:33.219Z,100008.34
2022-12-05T03:56:06.434Z,99996.47
2022-12-05T03:58:41.944Z,100001.19
2022-12-05T04:01:12.334Z,100002.56
2022-12-05T04:03:45.391Z,99999.31
2022-12-05T04:06:23.678Z,99985.66
2022-12-05T04:08:55.960Z,99981.88
2022-12-05T04:11:28.679Z,99980.31
2022-12-05T04:14:02.146Z,100002.19
2022-12-05T04:16:52.408Z,99980.41
2022-12-05T04:19:49.959Z,100007.41
2022-12-05T04:22:18.005Z,100001.91
2022-12-05T04:25:03.860Z,100014.13
2022-12-05T04:27:39.847Z,99987.56
2022-12-05T04:30:10.689Z,100006.59
2022-12-05T04:32:45.914Z,100015.78
2022-12-05T04:35:20.545Z,100005.88
2022-12-05T04:37:52.687Z,100000.31
2022-12-05T04:40:24.190Z,100004.00
2022-12-05T04:42:54.650Z,100000.81
2022-12-05T04:45:25.581Z,100005.00
2022-12-05T04:47:57.836Z,100008.66
2022-12-05T04:50:30.126Z,100001.38
2022-12-05T04:53:00.513Z,99989.09
2022-12-05T04:55:29.880Z,99984.09
2022-12-05T04:58:06.564Z,99985.47
2022-12-05T05:00:40.803Z,99992.22
2022-12-05T05:03:15.530Z,100001.66
2022-12-05T05:05:47.561Z,99990.22
2022-12-05T05:08:20.059Z,99989.22
2022-12-05T05:10:55.680Z,100004.22
2022-12-05T05:13:23.706Z,100000.09
2022-12-05T05:15:51.687Z,100001.81
2022-12-05T05:18:19.660Z,100009.28
2022-12-05T05:20:48.895Z,100004.53
2022-12-05T05:23:16.858Z,100017.91
2022-12-05T05:25:44.799Z,100011.88
2022-12-05T05:28:12.724Z,100010.00
2022-12-05T05:30:40.674Z,100011.44
2022-12-05T05:33:08.608Z,100002.91
2022-12-05T05:35:37.745Z,100015.28
2022-12-05T05:38:07.075Z,100013.41
2022-12-05T05:40:36.726Z,100010.06
2022-12-05T05:43:05.171Z,100026.56
2022-12-05T05:45:33.129Z,100021.44
2022-12-05T05:48:01.043Z,100019.16
2022-12-05T05:50:29.114Z,100025.25
2022-12-05T05:52:57.285Z,100023.81
2022-12-05T05:55:26.628Z,100021.66
2022-12-05T05:57:54.528Z,100022.63
2022-12-05T06:00:22.889Z,100017.91
2022-12-05T06:02:50.867Z,100019.75
2022-12-05T06:05:18.942Z,100020.53
2022-12-05T06:07:46.893Z,100027.22
2022-12-05T06:10:15.007Z,100014.91
2022-12-05T06:12:44.347Z,100021.44
2022-12-05T06:15:12.977Z,100023.75
2022-12-05T06:17:41.034Z,100027.88
2022-12-05T06:20:09.930Z,100026.94
2022-12-05T06:22:37.993Z,100025.19
2022-12-05T06:25:07.121Z,100027.09
2022-12-05T06:27:35.242Z,100044.53
2022-12-05T06:30:05.692Z,100036.13
2022-12-05T06:32:33.699Z,100037.91
2022-12-05T06:35:07.874Z,100038.97
2022-12-05T06:37:37.702Z,100033.34
2022-12-05T06:40:07.090Z,100034.53
2022-12-05T06:42:35.089Z,100034.63
2022-12-05T06:45:04.502Z,100039.78
2022-12-05T06:47:32.679Z,100033.28
2022-12-05T06:50:00.738Z,100036.78
2022-12-05T06:52:28.792Z,100042.81
2022-12-05T06:54:56.732Z,100047.88
2022-12-05T06:57:24.656Z,100047.94
2022-12-05T07:00:12.636Z,100056.91
2022-12-05T07:02:41.997Z,100054.63
2022-12-05T07:05:10.667Z,100049.63
2022-12-05T07:07:38.957Z,100059.75
2022-12-05T07:10:08.454Z,100055.66
2022-12-05T07:12:36.424Z,100055.59
2022-12-05T07:15:04.843Z,100060.66
2022-12-05T07:17:37.241Z,100057.41
2022-12-05T07:20:09.907Z,100055.91
2022-12-05T07:22:38.374Z,100059.44
2022-12-05T07:25:07.455Z,100065.22
2022-12-05T07:27:35.455Z,100066.91
2022-12-05T07:30:03.490Z,100075.38
2022-12-05T07:32:33.308Z,100058.16
2022-12-05T07:35:01.264Z,100082.13
2022-12-05T07:37:30.935Z,100078.22
2022-12-05T07:39:59.150Z,100074.34
2022-12-05T07:42:27.352Z,100069.63
2022-12-05T07:44:55.311Z,100067.84
2022-12-05T07:47:23.289Z,100071.41
2022-12-05T07:49:51.261Z,100086.22
2022-12-05T07:52:19.184Z,100083.59
2022-12-05T07:54:48.563Z,100080.25
2022-12-05T07:57:16.515Z,100098.56
2022-12-05T07:59:44.496Z,100087.88
2022-12-05T08:02:12.581Z,100085.38
2022-12-05T08:04:40.563Z,100089.66
2022-12-05T08:07:11.256Z,100096.38
2022-12-05T08:09:39.198Z,100103.19
2022-12-05T08:12:09.026Z,100103.44
2022-12-05T08:14:37.090Z,100103.44
2022-12-05T08:17:05.790Z,100107.78
2022-12-05T08:19:33.750Z,100105.38
2022-12-05T08:22:01.790Z,100117.06
2022-12-05T08:24:29.756Z,100120.47
2022-12-05T08:26:57.655Z,100112.31
2022-12-05T08:29:27.133Z,100110.78
2022-12-05T08:31:55.062Z,100112.63
2022-12-05T08:34:23.024Z,100112.78
2022-12-05T08:36:51.471Z,100110.22
2022-12-05T08:39:20.870Z,100127.16
2022-12-05T08:41:49.693Z,100102.59
2022-12-05T08:44:18.556Z,100122.09
2022-12-05T08:46:50.071Z,100124.47
2022-12-05T08:49:18.663Z,100120.41
2022-12-05T08:51:46.755Z,100124.72
2022-12-05T08:54:15.033Z,100126.44
2022-12-05T08:56:42.955Z,100120.81
2022-12-05T08:59:10.898Z,100130.94
2022-12-05T09:01:39.762Z,100123.53
2022-12-05T09:04:09.666Z,100126.88
2022-12-05T09:06:39.383Z,100127.75
2022-12-05T09:09:11.666Z,100123.66
2022-12-05T09:11:46.220Z,100137.78
2022-12-05T09:14:14.717Z,100122.28
2022-12-05T09:16:45.776Z,100125.63
2022-12-05T09:19:16.854Z,100118.03
2022-12-05T09:21:45.589Z,100119.59
2022-12-05T09:24:14.522Z,100117.03
2022-12-05T09:26:43.037Z,100119.59
2022-12-05T09:29:16.655Z,100113.81
2022-12-05T09:31:46.527Z,100111.56
2022-12-05T09:34:17.923Z,100115.66
2022-12-05T09:36:49.782Z,100106.50
2022-12-05T09:39:17.931Z,100102.44
2022-12-05T09:42:09.818Z,100104.25
2022-12-05T09:44:45.392Z,100106.78
2022-12-05T09:47:23.219Z,100103.50
2022-12-05T09:49:57.027Z,100104.41
2022-12-05T09:52:28.537Z,100101.91
2022-12-05T09:54:58.467Z,100095.75
2022-12-05T09:57:34.848Z,100101.19
2022-12-05T10:00:07.603Z,100110.44
2022-12-05T10:02:47.079Z,100103.88
2022-12-05T10:05:22.231Z,100093.75
2022-12-05T10:08:02.940Z,100101.19
2022-12-05T10:10:45.251Z,100093.50
2022-12-05T10:13:24.212Z,100097.16
2022-12-05T10:15:57.629Z,100097.16
2022-12-05T10:18:33.420Z,100089.72
2022-12-05T10:21:06.428Z,100087.28
2022-12-05T10:23:59.902Z,100070.09
2022-12-05T10:26:31.741Z,100094.00
2022-12-05T10:29:07.604Z,100086.63
2022-12-05T10:31:38.646Z,100085.91
2022-12-05T10:34:16.173Z,100080.31
2022-12-05T10:36:55.818Z,100073.84
2022-12-05T10:39:23.823Z,100078.94
2022-12-05T10:41:51.811Z,100079.69
2022-12-05T10:44:19.835Z,100078.09
2022-12-05T10:46:47.778Z,100078.91
2022-12-05T10:49:15.674Z,100070.72
2022-12-05T10:51:43.687Z,100069.81
2022-12-05T10:54:19.328Z,100063.09
2022-12-05T10:56:48.495Z,100057.03
2022-12-05T10:59:18.340Z,100060.44
2022-12-05T11:01:50.026Z,100057.78
2022-12-05T11:04:24.970Z,100050.94
2022-12-05T11:06:56.872Z,100050.88
2022-12-05T11:09:28.246Z,100056.75
2022-12-05T11:12:06.386Z,100055.00
2022-12-05T11:14:36.269Z,100055.81
2022-12-05T11:17:06.196Z,100057.31
2022-12-05T11:19:35.905Z,100048.06
2022-12-05T11:22:05.402Z,100043.81
2022-12-05T11:24:36.822Z,100040.59
2022-12-05T11:27:26.870Z,100045.53
2022-12-05T11:29:58.405Z,100038.69
2022-12-05T11:32:29.025Z,100036.16
2022-12-05T11:35:05.725Z,100037.13
2022-12-05T11:37:39.402Z,100038.75
2022-12-05T11:40:17.123Z,100046.25
2022-12-05T11:43:03.039Z,100039.56
2022-12-05T11:45:52.286Z,100036.16
2022-12-05T11:48:32.830Z,100032.13
2022-12-05T11:51:16.464Z,100020.44
2022-12-05T11:54:13.828Z,100027.25
2022-12-05T11:56:49.388Z,100027.25
2022-12-05T11:59:35.164Z,100017.94
2022-12-05T12:02:17.304Z,100024.81
2022-12-05T12:04:55.980Z,100017.38
2022-12-05T12:07:45.146Z,100024.88
2022-12-05T12:10:24.689Z,100019.06
2022-12-05T12:13:06.901Z,100014.94
2022-12-05T12:15:49.697Z,100014.19
2022-12-05T12:18:33.278Z,100012.56
2022-12-05T12:21:17.385Z,100012.69
2022-12-05T12:23:57.154Z,100010.19
2022-12-05T12:26:38.001Z,100006.00
2022-12-05T12:29:17.193Z,100011.91
2022-12-05T12:32:00.453Z,99999.63
2022-12-05T12:34:52.686Z,99996.34
2022-12-05T12:37:31.508Z,100003.91
2022-12-05T12:40:08.078Z,100004.53
2022-12-05T12:42:41.351Z,99999.28
2022-12-05T12:45:32.672Z,99995.94
2022-12-05T12:48:14.008Z,99998.44
2022-12-05T12:50:44.818Z,100001.00
2022-12-05T12:53:32.435Z,100000.91
2022-12-05T12:56:08.488Z,100000.69
2022-12-05T12:58:48.175Z,99996.50
2022-12-05T13:01:26.917Z,99989.00
2022-12-05T13:04:02.887Z,99980.78
2022-12-05T13:06:35.925Z,99980.72
2022-12-05T13:09:07.020Z,99980.72
2022-12-05T13:11:38.900Z,99984.84
2022-12-05T13:14:13.134Z,99982.31
2022-12-05T13:16:46.382Z,99978.22
2022-12-05T13:19:27.103Z,99974.00
2022-12-05T13:21:58.138Z,99975.66
2022-12-05T13:24:28.336Z,99968.91
2022-12-05T13:27:01.330Z,99980.59
2022-12-05T13:29:33.739Z,99980.59
2022-12-05T13:32:05.224Z,99983.03
2022-12-05T13:34:46.382Z,99972.44
2022-12-05T13:37:39.395Z,99987.66
2022-12-05T13:40:37.550Z,99987.47
2022-12-05T13:43:06.389Z,99992.25
2022-12-05T13:45:35.546Z,99992.09
2022-12-05T13:48:15.206Z,99979.25
2022-12-05T13:50:49.378Z,99983.09
2022-12-05T13:53:28.425Z,99977.78
2022-12-05T13:55:58.960Z,99975.09
2022-12-05T13:58:45.297Z,99973.59
2022-12-05T14:01:53.794Z,99974.56
2022-12-05T14:04:45.709Z,99972.66
2022-12-05T14:07:13.668Z,99969.31
2022-12-05T14:09:53.717Z,99964.22
2022-12-05T14:12:45.249Z,99959.16
2022-12-05T14:15:29.390Z,99951.25
2022-12-05T14:18:01.434Z,99957.16
2022-12-05T14:20:45.720Z,99952.59
2022-12-05T14:23:29.631Z,99924.00
2022-12-05T14:26:13.219Z,99945.25
2022-12-05T14:28:58.116Z,99941.00
2022-12-05T14:31:43.832Z,99943.34
2022-12-05T14:34:20.744Z,99938.13
2022-12-05T14:36:57.803Z,99922.63
2022-12-05T14:39:34.301Z,99935.22
2022-12-05T14:42:09.504Z,99935.16
2022-12-05T14:44:37.820Z,99920.16
2022-12-05T14:47:07.975Z,99918.44
2022-12-05T14:49:54.688Z,99921.84
2022-12-05T14:52:26.206Z,99930.25
2022-12-05T14:54:59.234Z,99930.06
2022-12-05T14:57:27.751Z,99925.84
2022-12-05T14:59:58.608Z,99932.47
2022-12-05T15:02:31.152Z,99916.59
2022-12-05T15:05:04.914Z,99918.97
2022-12-05T15:07:37.625Z,99929.94
2022-12-05T15:10:09.184Z,99929.75
2022-12-05T15:12:43.547Z,99940.38
2022-12-05T15:15:19.876Z,99942.59
2022-12-05T15:17:52.500Z,99944.19
2022-12-05T15:20:34.374Z,99941.63
2022-12-05T15:23:40.531Z,99944.06
2022-12-05T15:26:45.606Z,99940.53
2022-12-05T15:29:09.287Z,99940.28
2022-12-05T15:31:40.932Z,99946.72
2022-12-05T15:34:15.793Z,99940.03
2022-12-05T15:36:49.353Z,99940.88
2022-12-05T15:39:23.910Z,99940.75
2022-12-05T15:41:52.725Z,99934.91
2022-12-05T15:44:26.854Z,99945.00
2022-12-05T15:46:57.347Z,99935.47
2022-12-05T15:49:26.932Z,99936.16
2022-12-05T15:51:58.397Z,99914.16
2022-12-05T15:54:33.007Z,99938.00
2022-12-05T15:57:07.284Z,99936.44
2022-12-05T15:59:39.699Z,99943.00
2022-12-05T16:02:16.938Z,99939.72
2022-12-05T16:04:50.388Z,99944.75
2022-12-05T16:07:18.933Z,99942.38
2022-12-05T16:09:48.711Z,99943.25
2022-12-05T16:12:25.000Z,99946.66
2022-12-05T16:15:01.017Z,99941.66
2022-12-05T16:17:37.775Z,99939.72
2022-12-05T16:20:24.608Z,99944.44
2022-12-05T16:22:54.816Z,99943.41
2022-12-05T16:25:27.626Z,99939.53
2022-12-05T16:28:00.533Z,99934.06
2022-12-05T16:30:31.429Z,99925.91
2022-12-05T16:33:02.761Z,99927.78
2022-12-05T16:35:33.963Z,99939.63
2022-12-05T16:38:18.334Z,99942.25
2022-12-05T16:40:57.131Z,99943.09
2022-12-05T16:43:42.063Z,99942.91
2022-12-05T16:46:41.857Z,99945.78
2022-12-05T16:49:23.625Z,99961.22
2022-12-05T16:51:57.201Z,99951.81
2022-12-05T16:54:25.086Z,99948.31
2022-12-05T16:56:54.823Z,99938.03
2022-12-05T16:59:25.393Z,99953.16
2022-12-05T17:01:53.425Z,99949.75
2022-12-05T17:04:21.344Z,99967.41
2022-12-05T17:06:49.149Z,99959.53
2022-12-05T17:09:16.995Z,99959.66
2022-12-05T17:11:47.010Z,99963.50
2022-12-05T17:14:18.487Z,99953.75
2022-12-05T17:16:47.078Z,99959.72
2022-12-05T17:19:15.224Z,99963.00
2022-12-05T17:21:43.975Z,99963.72
2022-12-05T17:24:17.211Z,99960.31
2022-12-05T17:26:46.179Z,99959.97
2022-12-05T17:29:14.347Z,99960.84
2022-12-05T17:31:43.505Z,99961.63
2022-12-05T17:34:16.691Z,99955.16
2022-12-05T17:36:45.369Z,99957.81
2022-12-05T17:39:13.391Z,99959.38
2022-12-05T17:41:41.403Z,99957.16
2022-12-05T17:44:13.970Z,99957.41
2022-12-05T17:46:44.571Z,99940.03
2022-12-05T17:49:14.735Z,99943.53
2022-12-05T17:51:58.845Z,99936.16
2022-12-05T17:54:32.199Z,99929.59
2022-12-05T17:57:01.355Z,99945.78
2022-12-05T17:59:29.182Z,99945.41
2022-12-05T18:01:58.567Z,99968.75
2022-12-05T18:04:26.387Z,99972.84
2022-12-05T18:06:56.076Z,99961.94
2022-12-05T18:09:23.950Z,99963.44
2022-12-05T18:11:51.742Z,99971.44
2022-12-05T18:14:19.576Z,99974.72
2022-12-05T18:16:47.714Z,99973.69
2022-12-05T18:19:16.956Z,99970.22
2022-12-05T18:24:17.560Z,99970.53
2022-12-05T18:26:45.712Z,99961.59
2022-12-05T18:29:13.647Z,99945.13
2022-12-05T18:31:42.936Z,99940.94
2022-12-05T18:34:10.778Z,99940.44
2022-12-05T18:36:40.034Z,99942.84
2022-12-05T18:39:07.863Z,99934.59
2022-12-05T18:41:35.819Z,99928.75
2022-12-05T18:44:03.743Z,99940.56
2022-12-05T18:46:31.697Z,99938.97
2022-12-05T18:49:03.329Z,99944.94
2022-12-05T18:51:31.845Z,99943.34
2022-12-05T18:54:01.307Z,99940.06
2022-12-05T18:56:31.167Z,99937.38
2022-12-05T18:59:01.860Z,99937.59
2022-12-05T19:01:32.320Z,99942.59
2022-12-05T19:04:02.315Z,99936.66
2022-12-05T19:06:32.809Z,99926.38
2022-12-05T19:09:04.704Z,99929.84
2022-12-05T19:11:33.234Z,99933.88
2022-12-05T19:14:02.964Z,99940.38
2022-12-05T19:16:32.995Z,99934.53
2022-12-05T19:19:02.348Z,99930.91
2022-12-05T19:21:32.206Z,99936.44
2022-12-05T19:24:00.444Z,99933.22
2022-12-05T19:26:29.879Z,99928.16
2022-12-05T19:28:58.344Z,99924.63
2022-12-05T19:31:27.606Z,99919.41
2022-12-05T19:34:01.196Z,99919.25
2022-12-05T19:36:33.204Z,99924.25
2022-12-05T19:39:01.082Z,99919.25
2022-12-05T19:41:31.222Z,99912.88
2022-12-05T19:44:00.780Z,99917.94
2022-12-05T19:46:30.422Z,99914.44
2022-12-05T19:49:04.976Z,99903.94
2022-12-05T19:51:34.152Z,99910.63
2022-12-05T19:54:04.481Z,99908.56
2022-12-05T19:56:35.112Z,99913.03
2022-12-05T19:59:03.736Z,99888.97
2022-12-05T20:01:32.938Z,99899.81
2022-12-05T20:04:02.603Z,99901.44
2022-12-05T20:06:33.421Z,99894.75
2022-12-05T20:09:01.564Z,99902.09
2022-12-05T20:11:31.205Z,99901.03
2022-12-05T20:14:02.653Z,99897.81
2022-12-05T20:16:31.375Z,99895.41
2022-12-05T20:18:59.986Z,99834.00
2022-12-05T20:21:30.167Z,99869.75
2022-12-05T20:23:59.332Z,99891.00
2022-12-05T20:26:29.559Z,99890.41
2022-12-05T20:28:58.810Z,99893.81
2022-12-05T20:31:30.075Z,99898.94
2022-12-05T20:33:58.183Z,99889.75
2022-12-05T20:36:29.294Z,99899.78
2022-12-05T20:38:58.219Z,99894.63
2022-12-05T20:41:26.624Z,99889.50
2022-12-05T20:43:56.425Z,99893.56
2022-12-05T20:46:24.884Z,99898.66
2022-12-05T20:48:54.497Z,99895.13
2022-12-05T20:51:24.443Z,99890.03
2022-12-05T20:53:52.800Z,99892.44
2022-12-05T20:56:22.905Z,99884.09
2022-12-05T20:58:52.713Z,99861.34
2022-12-05T21:01:22.286Z,99880.47
2022-12-05T21:03:51.380Z,99864.53
2022-12-05T21:06:24.051Z,99878.06
2022-12-05T21:08:52.503Z,99875.25
2022-12-05T21:11:21.310Z,99870.47
2022-12-05T21:13:49.476Z,99873.69
2022-12-05T21:16:19.336Z,99870.16
2022-12-05T21:18:47.891Z,99874.78
2022-12-05T21:21:18.261Z,99868.50
2022-12-05T21:23:49.428Z,99866.44
2022-12-05T21:26:18.968Z,99866.25
2022-12-05T21:28:47.746Z,99862.91
2022-12-05T21:31:18.731Z,99861.25
2022-12-05T21:33:48.627Z,99865.38
2022-12-05T21:36:16.856Z,99855.97
2022-12-05T21:38:44.786Z,99847.41
2022-12-05T21:41:14.031Z,99833.91
2022-12-05T21:43:41.858Z,99857.44
2022-12-05T21:46:09.775Z,99849.81
2022-12-05T21:48:38.128Z,99816.06
2022-12-05T21:51:07.656Z,99844.84
2022-12-05T21:53:38.280Z,99846.41
2022-12-05T21:56:08.520Z,99842.88
2022-12-05T21:58:42.158Z,99845.25
2022-12-05T22:01:13.198Z,99852.06
2022-12-05T22:03:41.255Z,99832.69
2022-12-05T22:06:11.117Z,99836.41
2022-12-05T22:08:40.130Z,99824.69
2022-12-05T22:11:09.517Z,99833.06
2022-12-05T22:13:39.298Z,99821.41
2022-12-05T22:16:08.006Z,99807.13
2022-12-05T22:18:36.776Z,99807.06
2022-12-05T22:21:10.804Z,99813.16
2022-12-05T22:23:38.656Z,99820.75
2022-12-05T22:26:09.462Z,99815.22
2022-12-05T22:28:39.812Z,99817.25
2022-12-05T22:31:09.767Z,99795.31
2022-12-05T22:33:38.311Z,99799.81
2022-12-05T22:36:08.473Z,99790.56
2022-12-05T22:38:38.161Z,99778.91
2022-12-05T22:41:07.881Z,99767.72
2022-12-05T22:43:38.823Z,99760.69
2022-12-05T22:46:08.587Z,99760.03
2022-12-05T22:48:36.695Z,99759.25
2022-12-05T22:51:07.326Z,99755.44
2022-12-05T22:53:35.843Z,99762.25
2022-12-05T22:56:05.871Z,99735.53
2022-12-05T22:58:33.897Z,99761.00
2022-12-05T23:01:12.628Z,99747.88
2022-12-05T23:03:40.603Z,99743.06
2022-12-05T23:06:12.009Z,99735.72
2022-12-05T23:08:40.875Z,99733.28
2022-12-05T23:11:10.187Z,99730.13
2022-12-05T23:13:39.399Z,99721.78
2022-12-05T23:16:11.161Z,99717.56
2022-12-05T23:18:47.542Z,99729.50
2022-12-05T23:21:20.729Z,99726.94
2022-12-05T23:23:49.682Z,99706.88
2022-12-05T23:26:19.163Z,99708.59
2022-12-05T23:28:47.134Z,99697.03
2022-12-05T23:31:17.092Z,99695.47
2022-12-05T23:33:45.023Z,99683.69
2022-12-05T23:36:14.025Z,99695.53
2022-12-05T23:38:43.364Z,99687.25
2022-12-05T23:41:14.486Z,99684.66
2022-12-05T23:43:43.289Z,99674.47
2022-12-05T23:46:13.233Z,99668.66
2022-12-05T23:48:42.848Z,99664.25
2022-12-05T23:51:13.364Z,99655.81
2022-12-05T23:53:43.828Z,99648.16
2022-12-05T23:56:13.174Z,99655.81
2022-12-05T23:58:41.517Z,99645.78
